Time;durP1;ratioP1;P1;durP2;ratioP2;P2;SDS_P1;SDS_P2;PMS_P1;PMS_P2;Temp;Humidity;BMP_temperature;BMP_pressure;BME280_temperature;BME280_humidity;BME280_pressure;Samples;Min_cycle;Max_cycle;Signal;HPM_P1;HPM_P2
2024/01/03 00:01:29;;;;;;;2.33;1.02;;;13.40;81.30;;;;;;5051852;28;19908;-77
2024/01/03 00:03:57;;;;;;;1.75;1.20;;;13.40;81.20;;;;;;5051718;28;20028;-76
2024/01/03 00:06:28;;;;;;;3.05;1.40;;;13.40;81.30;;;;;;5034917;28;20035;-78
2024/01/03 00:08:54;;;;;;;2.40;1.35;;;13.40;81.40;;;;;;5035225;28;20119;-77
2024/01/03 00:11:21;;;;;;;3.92;1.48;;;13.40;81.40;;;;;;5035123;28;20048;-77
2024/01/03 00:14:06;;;;;;;4.68;1.73;;;13.40;81.40;;;;;;5034908;28;20040;-78
2024/01/03 00:16:39;;;;;;;2.92;1.25;;;13.40;81.40;;;;;;5054769;28;20357;-78
2024/01/03 00:19:14;;;;;;;4.00;1.48;;;13.40;81.40;;;;;;5056313;28;20029;-78
2024/01/03 00:21:39;;;;;;;;;;;13.40;81.40;;;;;;5057199;28;20035;-78
2024/01/03 00:24:07;;;;;;;2.63;1.15;;;13.40;81.40;;;;;;5039085;28;19913;-76
2024/01/03 00:26:35;;;;;;;2.33;1.30;;;13.40;81.30;;;;;;5038978;28;20124;-78
2024/01/03 00:29:03;;;;;;;4.57;1.65;;;13.40;81.30;;;;;;5055521;28;20033;-78
2024/01/03 00:31:43;;;;;;;5.13;1.50;;;13.40;81.40;;;;;;5022653;28;20039;-75
2024/01/03 00:34:21;;;;;;;3.88;1.70;;;13.40;81.40;;;;;;5055573;28;20087;-78
2024/01/03 00:36:48;;;;;;;4.05;1.48;;;13.30;81.40;;;;;;5055548;28;20021;-77
2024/01/03 00:39:13;;;;;;;2.47;1.48;;;13.40;81.40;;;;;;5055416;28;20031;-77
2024/01/03 00:41:41;;;;;;;4.22;1.70;;;13.40;81.40;;;;;;5022768;28;20086;-77
2024/01/03 00:44:06;;;;;;;3.42;1.50;;;13.40;81.30;;;;;;5038692;28;20037;-77
2024/01/03 00:46:32;;;;;;;4.72;2.17;;;13.40;81.40;;;;;;5055946;28;20378;-77
2024/01/03 00:48:59;;;;;;;3.00;1.67;;;13.30;81.40;;;;;;5038473;28;20482;-77
2024/01/03 00:51:25;;;;;;;2.60;1.48;;;13.40;81.40;;;;;;5022464;28;20039;-77
2024/01/03 00:53:51;;;;;;;4.85;1.98;;;13.40;81.40;;;;;;5054773;28;20393;-78
2024/01/03 00:56:18;;;;;;;5.55;2.53;;;13.40;81.40;;;;;;5038537;28;20029;-77
2024/01/03 00:58:43;;;;;;;4.28;2.45;;;13.40;81.40;;;;;;5054970;28;20032;-78
2024/01/03 01:01:09;;;;;;;7.22;3.00;;;13.40;81.40;;;;;;5056934;28;20051;-77
2024/01/03 01:03:35;;;;;;;6.22;3.60;;;13.40;81.30;;;;;;5038639;28;20404;-78
2024/01/03 01:06:01;;;;;;;7.60;3.90;;;13.40;81.30;;;;;;5054937;28;20029;-77
2024/01/03 01:08:27;;;;;;;9.43;5.30;;;13.40;81.30;;;;;;5038008;28;20071;-78
2024/01/03 01:10:53;;;;;;;11.40;6.28;;;13.40;81.30;;;;;;5021683;28;20029;-77
2024/01/03 01:13:18;;;;;;;11.35;6.03;;;13.40;81.30;;;;;;5038121;28;20462;-76
2024/01/03 01:15:45;;;;;;;10.35;6.72;;;13.40;81.30;;;;;;5038089;28;20033;-78
2024/01/03 01:18:10;;;;;;;9.32;6.53;;;13.40;81.30;;;;;;5021608;28;20033;-78
2024/01/03 01:20:36;;;;;;;10.32;7.07;;;13.40;81.30;;;;;;5038270;28;20036;-77
2024/01/03 01:23:02;;;;;;;9.15;5.97;;;13.40;81.30;;;;;;5021363;28;20082;-77
2024/01/03 01:25:28;;;;;;;8.95;5.40;;;13.40;81.30;;;;;;5022320;28;20029;-77
2024/01/03 01:27:54;;;;;;;10.27;5.53;;;13.40;81.30;;;;;;5036664;28;20492;-77
2024/01/03 01:30:20;;;;;;;8.02;4.53;;;13.40;81.30;;;;;;5038311;28;20037;-77
2024/01/03 01:32:47;;;;;;;8.68;4.57;;;13.30;81.20;;;;;;5037687;28;20444;-77
2024/01/03 01:35:12;;;;;;;8.93;4.05;;;13.40;81.20;;;;;;5038527;28;20079;-78
2024/01/03 01:37:39;;;;;;;7.40;3.78;;;13.30;81.10;;;;;;5037948;28;20040;-77
2024/01/03 01:40:05;;;;;;;6.55;3.88;;;13.40;81.20;;;;;;5037362;28;20037;-78
2024/01/03 01:42:31;;;;;;;7.63;3.95;;;13.30;81.20;;;;;;5054254;28;20036;-78
2024/01/03 01:44:57;;;;;;;8.20;3.78;;;13.40;81.20;;;;;;5037474;28;20037;-77
2024/01/03 01:47:25;;;;;;;6.88;3.38;;;13.40;81.20;;;;;;5037869;28;20029;-78
2024/01/03 01:49:52;;;;;;;7.03;3.60;;;13.30;81.20;;;;;;5053850;28;20559;-77
2024/01/03 01:52:20;;;;;;;8.40;3.05;;;13.30;81.20;;;;;;5038093;28;20033;-78
2024/01/03 01:54:46;;;;;;;6.68;2.90;;;13.40;81.20;;;;;;5053758;28;20108;-78
2024/01/03 01:57:13;;;;;;;6.88;3.20;;;13.30;81.10;;;;;;5020829;28;20400;-77
2024/01/03 01:59:41;;;;;;;6.43;2.90;;;13.40;81.20;;;;;;5020718;28;20049;-78
2024/01/03 02:02:07;;;;;;;6.85;2.67;;;13.40;81.20;;;;;;5021108;28;20029;-77
2024/01/03 02:04:34;;;;;;;7.18;3.00;;;13.30;81.10;;;;;;5037911;28;20064;-77
2024/01/03 02:07:00;;;;;;;5.60;2.28;;;13.40;81.10;;;;;;5053671;28;20036;-78
2024/01/03 02:09:26;;;;;;;5.75;2.08;;;13.30;81.10;;;;;;5037376;28;20029;-77
2024/01/03 02:11:52;;;;;;;5.57;2.60;;;13.30;81.10;;;;;;5053490;28;20418;-78
2024/01/03 02:14:17;;;;;;;6.68;2.47;;;13.30;81.10;;;;;;5037096;28;20037;-77
2024/01/03 02:16:43;;;;;;;6.88;2.45;;;13.40;81.10;;;;;;5037567;28;20412;-79
2024/01/03 02:19:09;;;;;;;6.53;2.70;;;13.40;81.10;;;;;;5037352;28;20390;-79
2024/01/03 02:21:35;;;;;;;6.13;2.40;;;13.40;81.10;;;;;;5053468;28;20044;-78
2024/01/03 02:24:01;;;;;;;5.93;2.42;;;13.40;81.10;;;;;;5037062;28;20051;-78
2024/01/03 02:26:26;;;;;;;7.55;2.40;;;13.40;81.10;;;;;;5020338;28;20075;-77
2024/01/03 02:28:52;;;;;;;5.72;2.55;;;13.30;81.10;;;;;;5037442;28;20078;-77
2024/01/03 02:31:18;;;;;;;6.32;2.80;;;13.40;81.10;;;;;;5036689;28;20041;-78
2024/01/03 02:33:43;;;;;;;4.25;2.10;;;13.30;81.10;;;;;;5037214;28;20480;-78
2024/01/03 02:36:09;;;;;;;6.22;2.38;;;13.40;81.10;;;;;;5036499;28;20032;-78
2024/01/03 02:38:35;;;;;;;5.45;2.00;;;13.30;81.10;;;;;;5036404;28;20033;-78
2024/01/03 02:41:01;;;;;;;5.00;2.20;;;13.40;81.10;;;;;;5052755;28;20044;-78
2024/01/03 02:43:28;;;;;;;4.72;2.22;;;13.30;81.00;;;;;;5019796;28;20082;-78
2024/01/03 02:45:53;;;;;;;6.80;2.63;;;13.40;81.10;;;;;;5036656;28;20055;-77
2024/01/03 02:48:19;;;;;;;4.72;1.95;;;13.40;81.10;;;;;;5052736;28;20037;-77
2024/01/03 02:50:48;;;;;;;4.75;2.35;;;13.40;81.10;;;;;;5036662;28;20381;-78
2024/01/03 02:53:15;;;;;;;3.90;2.03;;;13.40;81.10;;;;;;5036174;28;20123;-77
2024/01/03 02:55:41;;;;;;;6.25;2.30;;;13.40;81.10;;;;;;5036354;28;20029;-78
2024/01/03 02:58:07;;;;;;;5.75;2.03;;;13.40;81.10;;;;;;5019303;28;20036;-78
2024/01/03 03:00:32;;;;;;;4.85;1.98;;;13.40;81.10;;;;;;5035899;28;20131;-78
2024/01/03 03:02:58;;;;;;;5.22;1.80;;;13.30;81.10;;;;;;5035844;28;20036;-78
2024/01/03 03:05:24;;;;;;;6.68;2.20;;;13.30;81.10;;;;;;5036193;28;20033;-78
2024/01/03 03:07:49;;;;;;;7.30;2.47;;;13.30;81.10;;;;;;5052071;28;20033;-78
2024/01/03 03:10:15;;;;;;;6.43;1.92;;;13.40;81.10;;;;;;5035937;28;20025;-78
2024/01/03 03:12:41;;;;;;;5.20;2.15;;;13.40;81.10;;;;;;5019289;28;20130;-78
2024/01/03 03:15:07;;;;;;;7.72;2.03;;;13.40;81.10;;;;;;5035691;28;20033;-77
2024/01/03 03:17:33;;;;;;;4.38;1.80;;;13.30;81.10;;;;;;5035716;28;20068;-77
2024/01/03 03:19:59;;;;;;;4.70;1.75;;;13.30;81.10;;;;;;5052461;28;20040;-77
2024/01/03 03:22:24;;;;;;;5.95;1.98;;;13.40;81.10;;;;;;5035730;28;20451;-77
2024/01/03 03:24:50;;;;;;;6.50;1.90;;;13.30;81.10;;;;;;5052544;28;20032;-78
2024/01/03 03:27:16;;;;;;;3.95;1.77;;;13.30;81.10;;;;;;5035831;28;20037;-78
2024/01/03 03:29:42;;;;;;;4.75;2.10;;;13.40;81.20;;;;;;5052232;28;20154;-78
2024/01/03 03:32:07;;;;;;;6.60;2.00;;;13.30;81.10;;;;;;5052018;28;20039;-78
2024/01/03 03:34:33;;;;;;;6.35;2.50;;;13.30;81.10;;;;;;5052142;28;20036;-77
2024/01/03 03:37:00;;;;;;;7.22;2.83;;;13.30;81.10;;;;;;5035735;28;20489;-77
2024/01/03 03:39:26;;;;;;;4.45;2.13;;;13.30;81.10;;;;;;5051892;28;20025;-78
2024/01/03 03:41:52;;;;;;;4.60;1.80;;;13.30;81.10;;;;;;5035481;28;20081;-77
2024/01/03 03:44:17;;;;;;;4.13;1.63;;;13.30;81.10;;;;;;5035884;28;20462;-77
2024/01/03 03:46:43;;;;;;;4.80;1.70;;;13.30;81.10;;;;;;5051770;28;20108;-78
2024/01/03 03:49:09;;;;;;;6.00;2.08;;;13.30;81.10;;;;;;5051983;28;20404;-77
2024/01/03 03:51:35;;;;;;;4.10;2.00;;;13.30;81.10;;;;;;5051433;28;20040;-77
2024/01/03 03:54:00;;;;;;;4.30;1.63;;;13.30;81.10;;;;;;5035188;28;20481;-78
2024/01/03 03:56:29;;;;;;;4.18;1.70;;;13.30;81.10;;;;;;5051887;28;20033;-77
2024/01/03 03:58:54;;;;;;;4.18;1.85;;;13.30;81.10;;;;;;5035162;28;20036;-77
2024/01/03 04:01:20;;;;;;;5.72;1.92;;;13.30;81.10;;;;;;5035407;28;20494;-78
2024/01/03 04:03:46;;;;;;;3.97;1.67;;;13.30;81.10;;;;;;5035212;28;20478;-78
2024/01/03 04:06:13;;;;;;;3.88;1.88;;;13.30;81.20;;;;;;5018830;28;20029;-78
2024/01/03 04:08:48;;;;;;;4.35;1.65;;;13.30;81.20;;;;;;5019636;28;20458;-77
2024/01/03 04:11:13;;;;;;;4.32;1.80;;;13.30;81.20;;;;;;5034974;28;20040;-78
2024/01/03 04:13:39;;;;;;;3.75;1.95;;;13.30;81.20;;;;;;5035098;28;20033;-77
2024/01/03 04:16:09;;;;;;;6.32;1.67;;;13.30;81.20;;;;;;5034909;28;20025;-77
2024/01/03 04:18:35;;;;;;;4.55;1.70;;;13.30;81.20;;;;;;5053288;28;20033;-78
2024/01/03 04:21:06;;;;;;;6.28;1.85;;;13.30;81.20;;;;;;5034965;28;20086;-77
2024/01/03 04:23:33;;;;;;;4.43;1.67;;;13.30;81.20;;;;;;5034900;28;20409;-77
2024/01/03 04:26:00;;;;;;;3.72;1.40;;;13.30;81.20;;;;;;5034733;28;20025;-78
2024/01/03 04:28:26;;;;;;;4.22;1.85;;;13.30;81.20;;;;;;5051191;28;20048;-78
2024/01/03 04:30:51;;;;;;;4.63;2.30;;;13.30;81.20;;;;;;5018749;28;20067;-78
2024/01/03 04:33:17;;;;;;;6.38;2.00;;;13.30;81.30;;;;;;5034659;28;20097;-78
2024/01/03 04:35:44;;;;;;;3.97;1.80;;;13.30;81.30;;;;;;5035068;28;20029;-78
2024/01/03 04:38:10;;;;;;;4.47;1.63;;;13.20;81.20;;;;;;5052740;28;20021;-77
2024/01/03 04:40:36;;;;;;;5.47;2.08;;;13.30;81.30;;;;;;5051696;28;20466;-77
2024/01/03 04:43:02;;;;;;;4.30;1.73;;;13.30;81.30;;;;;;5051589;28;20044;-78
2024/01/03 04:45:28;;;;;;;4.68;1.67;;;13.20;81.20;;;;;;5053176;28;20025;-77
2024/01/03 04:47:54;;;;;;;4.47;2.50;;;13.30;81.30;;;;;;5018422;28;20469;-78
2024/01/03 04:50:19;;;;;;;4.45;1.73;;;13.20;81.20;;;;;;5034614;28;20029;-78
2024/01/03 04:52:46;;;;;;;5.88;1.90;;;13.30;81.30;;;;;;5017939;28;20132;-78
2024/01/03 04:55:11;;;;;;;4.80;1.73;;;13.30;81.30;;;;;;5034900;28;20060;-77
2024/01/03 04:57:38;;;;;;;5.00;2.47;;;13.20;81.20;;;;;;5035024;28;20485;-77
2024/01/03 05:00:04;;;;;;;4.50;2.00;;;13.30;81.30;;;;;;5052387;28;20492;-77
2024/01/03 05:02:30;;;;;;;5.60;2.45;;;13.30;81.30;;;;;;5052584;28;20064;-78
2024/01/03 05:04:56;;;;;;;7.68;2.92;;;13.20;81.30;;;;;;5038199;28;20056;-77
2024/01/03 05:07:22;;;;;;;8.88;2.67;;;13.20;81.30;;;;;;5055136;28;20055;-78
2024/01/03 05:09:48;;;;;;;6.10;2.88;;;13.20;81.30;;;;;;5037965;28;20119;-77
2024/01/03 05:12:14;;;;;;;6.97;2.65;;;13.20;81.30;;;;;;5038237;28;20128;-77
2024/01/03 05:14:39;;;;;;;5.63;2.85;;;13.20;81.30;;;;;;5021975;28;20407;-77
2024/01/03 05:17:05;;;;;;;8.93;3.45;;;13.20;81.30;;;;;;5038392;28;20434;-78
2024/01/03 05:19:31;;;;;;;7.55;3.10;;;13.20;81.30;;;;;;5038179;28;20033;-77
2024/01/03 05:21:57;;;;;;;6.82;2.75;;;13.20;81.30;;;;;;5038042;28;20178;-78
2024/01/03 05:24:22;;;;;;;7.63;3.25;;;13.20;81.30;;;;;;5038240;28;20355;-78
2024/01/03 05:26:48;;;;;;;6.07;2.80;;;13.20;81.30;;;;;;5038102;28;20037;-78
2024/01/03 05:29:14;;;;;;;7.72;3.28;;;13.20;81.30;;;;;;5037959;28;20127;-76
2024/01/03 05:31:40;;;;;;;5.90;2.83;;;13.20;81.30;;;;;;5054132;28;20037;-78
2024/01/03 05:34:07;;;;;;;5.25;2.50;;;13.20;81.30;;;;;;5037698;28;20037;-78
2024/01/03 05:36:33;;;;;;;4.95;2.25;;;13.20;81.30;;;;;;5037967;28;20040;-77
2024/01/03 05:38:58;;;;;;;4.88;2.53;;;13.20;81.30;;;;;;5054194;28;20394;-77
2024/01/03 05:41:24;;;;;;;4.43;2.42;;;13.20;81.40;;;;;;5053977;28;20062;-78
2024/01/03 05:43:50;;;;;;;5.35;2.40;;;13.20;81.40;;;;;;5037437;28;20033;-77
2024/01/03 05:46:15;;;;;;;5.47;2.22;;;13.20;81.40;;;;;;5021087;28;20395;-77
2024/01/03 05:48:42;;;;;;;6.25;2.47;;;13.20;81.40;;;;;;5054001;28;20040;-78
2024/01/03 05:51:08;;;;;;;6.43;2.20;;;13.20;81.40;;;;;;5037371;28;20044;-78
2024/01/03 05:53:34;;;;;;;6.22;2.70;;;13.20;81.40;;;;;;5053828;28;20056;-78
2024/01/03 05:56:00;;;;;;;6.53;2.60;;;13.20;81.40;;;;;;5037268;28;20069;-78
2024/01/03 05:58:26;;;;;;;4.88;2.35;;;13.20;81.40;;;;;;5037334;28;20033;-77
2024/01/03 06:00:52;;;;;;;4.28;2.10;;;13.20;81.50;;;;;;5037044;28;20060;-77
2024/01/03 06:03:18;;;;;;;6.22;2.10;;;13.20;81.50;;;;;;5037108;28;20060;-78
2024/01/03 06:05:44;;;;;;;3.80;2.08;;;13.20;81.50;;;;;;5036850;28;20060;-77
2024/01/03 06:08:10;;;;;;;3.97;2.10;;;13.20;81.50;;;;;;5020301;28;20036;-78
2024/01/03 06:10:36;;;;;;;3.88;2.00;;;13.10;81.50;;;;;;5021327;28;20104;-78
2024/01/03 06:13:02;;;;;;;6.45;2.40;;;13.10;81.40;;;;;;5020182;28;20048;-78
2024/01/03 06:15:28;;;;;;;4.45;2.00;;;13.10;81.50;;;;;;5053425;28;20041;-77
2024/01/03 06:17:54;;;;;;;3.67;1.90;;;13.10;81.50;;;;;;5020607;28;20545;-78
2024/01/03 06:20:19;;;;;;;3.17;2.03;;;13.10;81.50;;;;;;5053418;28;20021;-78
2024/01/03 06:22:45;;;;;;;2.88;1.92;;;13.10;81.50;;;;;;5036784;28;20135;-77
2024/01/03 06:25:11;;;;;;;4.50;2.22;;;13.10;81.50;;;;;;5020832;28;20382;-77
2024/01/03 06:27:36;;;;;;;2.63;1.50;;;13.10;81.50;;;;;;5020411;28;20025;-78
2024/01/03 06:30:03;;;;;;;3.97;1.58;;;13.10;81.50;;;;;;5053170;28;20066;-78
2024/01/03 06:32:28;;;;;;;3.47;1.70;;;13.10;81.60;;;;;;5020173;28;20067;-76
2024/01/03 06:34:54;;;;;;;2.53;1.60;;;13.10;81.60;;;;;;5036708;28;20033;-78
2024/01/03 06:37:20;;;;;;;3.80;1.80;;;13.10;81.60;;;;;;5036596;28;20505;-78
2024/01/03 06:39:45;;;;;;;1.63;1.52;;;13.10;81.60;;;;;;5036507;28;20079;-78
2024/01/03 06:42:11;;;;;;;2.55;1.65;;;13.10;81.60;;;;;;5036506;28;20135;-78
2024/01/03 06:44:37;;;;;;;4.13;1.58;;;13.00;81.60;;;;;;5053120;28;20033;-78
2024/01/03 06:47:02;;;;;;;2.75;1.50;;;13.00;81.60;;;;;;5053155;28;20523;-77
2024/01/03 06:49:28;;;;;;;3.30;1.70;;;13.00;81.60;;;;;;5019720;28;20033;-77
2024/01/03 06:51:56;;;;;;;3.00;1.60;;;13.00;81.60;;;;;;5036165;28;20037;-77
2024/01/03 06:54:22;;;;;;;2.97;1.50;;;13.00;81.70;;;;;;5019773;28;20041;-78
2024/01/03 06:56:48;;;;;;;4.70;1.63;;;13.00;81.70;;;;;;5037014;28;20059;-77
2024/01/03 06:59:14;;;;;;;2.90;1.58;;;13.00;81.60;;;;;;5019733;28;20025;-77
2024/01/03 07:01:39;;;;;;;3.25;1.63;;;13.00;81.60;;;;;;5035618;28;20079;-77
2024/01/03 07:04:05;;;;;;;2.22;1.40;;;13.00;81.60;;;;;;5036709;28;20094;-78
2024/01/03 07:06:31;;;;;;;4.25;1.60;;;13.00;81.60;;;;;;5036770;28;20040;-77
2024/01/03 07:08:56;;;;;;;1.92;1.50;;;13.00;81.60;;;;;;5019521;28;20378;-78
2024/01/03 07:11:22;;;;;;;2.30;1.50;;;13.00;81.70;;;;;;5036672;28;20446;-78
2024/01/03 07:13:48;;;;;;;2.38;1.30;;;13.00;81.70;;;;;;5019480;28;20033;-78
2024/01/03 07:16:14;;;;;;;3.22;1.30;;;13.00;81.70;;;;;;5036386;28;20533;-78
2024/01/03 07:18:39;;;;;;;2.22;1.10;;;13.00;82.30;;;;;;5052731;28;20041;-78
2024/01/03 07:21:06;;;;;;;3.30;1.73;;;13.00;81.70;;;;;;5052061;28;20444;-79
2024/01/03 07:23:32;;;;;;;1.20;1.10;;;13.00;81.70;;;;;;5036060;28;20045;-78
2024/01/03 07:25:57;;;;;;;1.80;1.25;;;13.00;81.70;;;;;;5051234;28;20033;-78
2024/01/03 07:28:23;;;;;;;1.67;1.10;;;13.00;81.70;;;;;;5035764;28;20035;-77
2024/01/03 07:30:49;;;;;;;1.95;1.23;;;13.00;81.70;;;;;;5035567;28;20040;-78
2024/01/03 07:33:15;;;;;;;1.90;1.50;;;12.90;81.60;;;;;;5035499;28;20494;-78
2024/01/03 07:35:40;;;;;;;1.20;1.08;;;12.90;81.70;;;;;;5019324;28;20385;-79
2024/01/03 07:38:07;;;;;;;1.23;1.00;;;12.90;81.70;;;;;;5051840;28;20036;-77
2024/01/03 07:40:34;;;;;;;1.92;1.38;;;12.90;81.70;;;;;;5035482;28;20033;-77
2024/01/03 07:43:00;;;;;;;1.45;1.00;;;12.90;81.70;;;;;;5019129;28;20347;-78
2024/01/03 07:45:25;;;;;;;1.05;0.95;;;12.90;81.70;;;;;;5035055;28;20040;-77
2024/01/03 07:47:51;;;;;;;1.00;1.00;;;12.90;81.70;;;;;;5053304;28;20025;-78
2024/01/03 07:50:18;;;;;;;1.30;1.00;;;12.90;81.70;;;;;;5019289;28;20071;-78
2024/01/03 07:52:44;;;;;;;1.20;1.00;;;12.90;81.70;;;;;;5051703;28;20093;-77
2024/01/03 07:55:10;;;;;;;0.82;0.82;;;12.90;81.70;;;;;;5019093;28;20065;-77
2024/01/03 07:57:36;;;;;;;0.93;0.90;;;12.90;81.80;;;;;;5035203;28;20495;-76
2024/01/03 08:00:03;;;;;;;1.27;0.95;;;12.90;81.80;;;;;;5035632;28;20135;-78
2024/01/03 08:02:31;;;;;;;1.42;1.10;;;12.80;81.70;;;;;;5035294;28;20045;-78
2024/01/03 08:04:56;;;;;;;0.93;0.90;;;12.80;81.70;;;;;;5052042;28;20037;-76
2024/01/03 08:07:22;;;;;;;1.08;0.85;;;12.80;81.70;;;;;;5035193;28;20497;-79
2024/01/03 08:09:49;;;;;;;0.80;0.80;;;12.80;81.70;;;;;;5035879;28;20029;-78
2024/01/03 08:12:15;;;;;;;0.70;0.70;;;12.80;81.70;;;;;;5035450;28;20029;-77
2024/01/03 08:14:40;;;;;;;0.82;0.82;;;12.80;81.70;;;;;;5051578;28;20037;-78
2024/01/03 08:17:06;;;;;;;0.80;0.80;;;12.80;81.70;;;;;;5051404;28;20036;-78
2024/01/03 08:19:32;;;;;;;1.08;0.82;;;12.80;81.70;;;;;;5052110;28;20025;-78
2024/01/03 08:22:00;;;;;;;0.95;0.80;;;12.80;81.70;;;;;;5051909;28;20086;-77
2024/01/03 08:24:26;;;;;;;0.77;0.77;;;12.80;81.70;;;;;;5051952;28;20021;-80
2024/01/03 08:26:52;;;;;;;1.05;0.80;;;12.80;81.70;;;;;;5051798;28;20136;-77
2024/01/03 08:29:18;;;;;;;0.77;0.77;;;12.80;81.70;;;;;;5052082;28;20116;-77
2024/01/03 08:31:48;;;;;;;0.95;0.90;;;12.70;81.70;;;;;;5051824;28;20037;-78
2024/01/03 08:34:13;;;;;;;1.13;0.77;;;12.80;81.80;;;;;;5034985;28;20037;-79
2024/01/03 08:36:43;;;;;;;1.10;1.00;;;12.70;81.70;;;;;;5035751;28;20090;-78
2024/01/03 08:39:09;;;;;;;2.03;0.98;;;12.70;81.70;;;;;;5022980;28;20115;-78
2024/01/03 08:41:36;;;;;;;2.20;1.10;;;12.70;81.60;;;;;;5055918;28;20037;-77
2024/01/03 08:44:02;;;;;;;1.25;1.10;;;12.70;81.60;;;;;;5055900;28;20033;-78
2024/01/03 08:46:34;;;;;;;1.48;1.10;;;12.70;81.60;;;;;;5038032;28;20025;-77
2024/01/03 08:49:01;;;;;;;3.78;1.38;;;12.70;81.70;;;;;;5038615;28;20040;-77
2024/01/03 08:51:27;;;;;;;1.52;1.00;;;12.70;81.70;;;;;;5056555;28;20060;-77
2024/01/03 08:53:53;;;;;;;2.00;1.20;;;12.70;81.60;;;;;;5054646;28;20454;-78
2024/01/03 08:56:19;;;;;;;1.20;1.10;;;12.70;81.60;;;;;;5038057;28;20090;-77
2024/01/03 08:58:46;;;;;;;1.52;1.10;;;12.70;81.70;;;;;;5055054;28;20490;-77
2024/01/03 09:01:21;;;;;;;3.08;1.30;;;12.70;81.70;;;;;;5054579;28;20187;-79
2024/01/03 09:03:47;;;;;;;2.60;1.60;;;12.70;81.70;;;;;;5038410;28;20094;-77
2024/01/03 09:06:16;;;;;;;1.45;1.30;;;12.70;81.70;;;;;;5055810;28;20029;-77
2024/01/03 09:08:42;;;;;;;1.55;1.20;;;12.60;81.70;;;;;;5037815;28;20041;-77
2024/01/03 09:11:12;;;;;;;1.73;1.20;;;12.70;81.70;;;;;;5037938;28;20146;-76
2024/01/03 09:13:39;;;;;;;2.67;1.33;;;12.70;81.70;;;;;;5056044;28;20025;-77
2024/01/03 09:16:07;;;;;;;2.03;1.38;;;12.70;81.70;;;;;;5054651;28;20029;-77
2024/01/03 09:18:33;;;;;;;1.20;1.10;;;12.60;81.70;;;;;;5054257;28;20040;-77
2024/01/03 09:21:01;;;;;;;2.58;1.40;;;12.70;81.70;;;;;;5038089;28;20028;-77
2024/01/03 09:23:27;;;;;;;1.58;1.30;;;12.60;81.70;;;;;;5054648;28;20039;-78
2024/01/03 09:25:55;;;;;;;2.08;1.30;;;12.60;81.70;;;;;;5054462;28;20033;-78
2024/01/03 09:28:21;;;;;;;2.35;1.27;;;12.60;81.70;;;;;;5021577;28;20029;-78
2024/01/03 09:30:47;;;;;;;2.75;1.38;;;12.60;81.70;;;;;;5037897;28;20033;-79
2024/01/03 09:33:13;;;;;;;2.60;1.50;;;12.60;81.70;;;;;;5054563;28;20033;-78
2024/01/03 09:35:39;;;;;;;1.65;1.48;;;12.60;81.70;;;;;;5055532;28;20032;-78
2024/01/03 09:38:05;;;;;;;1.60;1.40;;;12.60;81.70;;;;;;5054253;28;20366;-79
2024/01/03 09:40:33;;;;;;;2.45;1.58;;;12.60;81.70;;;;;;5054362;28;20165;-77
2024/01/03 09:43:02;;;;;;;2.53;1.48;;;12.60;81.80;;;;;;5037771;28;20041;-78
2024/01/03 09:45:28;;;;;;;1.70;1.58;;;12.60;81.70;;;;;;5054015;28;20389;-78
2024/01/03 09:47:54;;;;;;;2.95;1.60;;;12.60;81.70;;;;;;5020529;28;20090;-78
2024/01/03 09:50:21;;;;;;;2.13;1.55;;;12.60;81.70;;;;;;5020809;28;20033;-77
2024/01/03 09:52:48;;;;;;;1.50;1.38;;;12.60;81.70;;;;;;5037051;28;20033;-77
2024/01/03 09:55:15;;;;;;;2.50;1.65;;;12.60;81.80;;;;;;5054667;28;20029;-78
2024/01/03 09:57:41;;;;;;;2.20;1.38;;;12.60;81.80;;;;;;5053329;28;20112;-77
2024/01/03 10:00:08;;;;;;;1.98;1.65;;;12.60;81.80;;;;;;5037839;28;20025;-77
2024/01/03 10:02:37;;;;;;;2.38;1.50;;;12.60;81.80;;;;;;5037391;28;20416;-77
2024/01/03 10:05:04;;;;;;;3.17;1.83;;;12.60;81.80;;;;;;5054081;28;20025;-77
2024/01/03 10:07:34;;;;;;;4.00;1.77;;;12.60;81.80;;;;;;5037603;28;20069;-76
2024/01/03 10:10:00;;;;;;;2.88;1.63;;;12.60;81.90;;;;;;5037765;28;20024;-77
2024/01/03 10:12:29;;;;;;;2.58;1.67;;;12.60;81.80;;;;;;5054666;28;20044;-78
2024/01/03 10:14:56;;;;;;;1.63;1.50;;;12.60;81.90;;;;;;5036651;28;20040;-77
2024/01/03 10:17:22;;;;;;;3.38;1.70;;;12.60;81.80;;;;;;5036868;28;20195;-77
2024/01/03 10:19:48;;;;;;;3.30;1.65;;;12.60;81.80;;;;;;5037080;28;20029;-76
2024/01/03 10:22:18;;;;;;;5.30;1.80;;;12.60;81.80;;;;;;5054282;28;20465;-77
2024/01/03 10:24:46;;;;;;;2.90;1.70;;;12.60;81.80;;;;;;5036995;28;20591;-77
2024/01/03 10:27:11;;;;;;;4.30;1.70;;;12.60;81.80;;;;;;5020399;28;20048;-77
2024/01/03 10:29:38;;;;;;;3.13;1.90;;;12.60;81.80;;;;;;5052831;28;20477;-77
2024/01/03 10:32:09;;;;;;;2.00;1.58;;;12.60;81.80;;;;;;5053144;28;20035;-78
2024/01/03 10:34:36;;;;;;;3.90;1.75;;;12.60;81.80;;;;;;5053272;28;20037;-77
2024/01/03 10:37:03;;;;;;;2.95;1.50;;;12.60;81.80;;;;;;5019742;28;20112;-77
2024/01/03 10:39:31;;;;;;;5.32;1.70;;;12.60;81.80;;;;;;5036438;28;20036;-78
2024/01/03 10:41:58;;;;;;;3.35;1.48;;;12.60;81.70;;;;;;5053265;28;20037;-77
2024/01/03 10:44:24;;;;;;;4.10;1.77;;;12.60;81.80;;;;;;5036212;28;20561;-79
2024/01/03 10:46:54;;;;;;;5.68;1.90;;;12.70;81.80;;;;;;5019977;28;20037;-77
2024/01/03 10:49:20;;;;;;;3.17;1.60;;;12.60;81.70;;;;;;5052589;28;20032;-77
2024/01/03 10:51:51;;;;;;;3.50;1.50;;;12.60;81.70;;;;;;5052667;28;20037;-77
2024/01/03 10:54:20;;;;;;;3.60;1.83;;;12.70;81.80;;;;;;5052801;28;20064;-78
2024/01/03 10:56:50;;;;;;;3.65;2.20;;;12.70;81.80;;;;;;5035999;28;20052;-76
2024/01/03 10:59:17;;;;;;;5.25;1.83;;;12.70;81.80;;;;;;5036352;28;20059;-77
2024/01/03 11:01:55;;;;;;;3.42;1.70;;;12.70;81.70;;;;;;5018640;28;20053;-79
2024/01/03 11:04:58;;;;;;;4.75;1.85;;;12.70;81.80;;;;;;5052591;28;20561;-78
2024/01/03 11:07:37;;;;;;;4.68;1.90;;;12.70;81.80;;;;;;4999063;28;20100;-77
2024/01/03 11:10:03;;;;;;;4.20;1.77;;;12.70;81.70;;;;;;5031757;28;20055;-78
2024/01/03 11:12:29;;;;;;;3.45;1.90;;;12.70;81.70;;;;;;5052526;28;20040;-76
2024/01/03 11:15:15;;;;;;;3.03;1.65;;;12.70;81.70;;;;;;5020124;28;20420;-77
2024/01/03 11:17:41;;;;;;;2.95;1.60;;;12.70;81.70;;;;;;5035712;28;20067;-78
2024/01/03 11:20:07;;;;;;;3.35;1.73;;;12.70;81.70;;;;;;5036463;28;20056;-78
2024/01/03 11:22:56;;;;;;;2.95;1.50;;;12.70;81.70;;;;;;5020257;28;20091;-78
2024/01/03 11:25:51;;;;;;;2.75;1.70;;;12.70;81.80;;;;;;5052507;28;20040;-78
2024/01/03 11:28:33;;;;;;;5.45;2.05;;;12.80;81.90;;;;;;5052679;28;20029;-79
2024/01/03 11:31:02;;;;;;;2.78;1.88;;;12.70;81.80;;;;;;5052962;28;20127;-78
2024/01/03 11:33:31;;;;;;;3.17;1.67;;;12.70;81.70;;;;;;5053049;28;20045;-78
2024/01/03 11:35:58;;;;;;;4.43;1.90;;;12.70;81.70;;;;;;5052560;28;20104;-77
2024/01/03 11:38:43;;;;;;;3.70;1.90;;;12.70;81.70;;;;;;5037114;28;20442;-77
2024/01/03 11:41:16;;;;;;;3.97;1.63;;;12.70;81.80;;;;;;5036477;28;20028;-78
2024/01/03 11:43:42;;;;;;;4.20;1.88;;;12.70;81.70;;;;;;5036609;28;20132;-78
2024/01/03 11:46:09;;;;;;;3.22;1.65;;;12.80;81.80;;;;;;5052246;28;20020;-78
2024/01/03 11:48:39;;;;;;;5.05;1.90;;;12.80;81.80;;;;;;5036279;28;20025;-80
2024/01/03 11:51:25;;;;;;;3.65;1.77;;;12.80;81.80;;;;;;5052653;28;20394;-80
2024/01/03 11:53:52;;;;;;;3.67;1.80;;;12.80;81.90;;;;;;5053543;28;20041;-77
2024/01/03 11:56:28;;;;;;;3.95;2.25;;;12.80;81.80;;;;;;5053140;28;20025;-79
2024/01/03 11:58:55;;;;;;;4.45;1.67;;;12.80;81.80;;;;;;5036302;28;20124;-78
2024/01/03 12:01:21;;;;;;;3.53;1.95;;;12.80;81.80;;;;;;5052754;28;20052;-78
2024/01/03 12:03:47;;;;;;;4.05;1.83;;;12.80;81.80;;;;;;5036162;28;20473;-79
2024/01/03 12:06:12;;;;;;;3.28;1.70;;;12.80;81.80;;;;;;5054244;28;20097;-78
2024/01/03 12:08:38;;;;;;;3.03;1.50;;;12.80;81.80;;;;;;5036319;28;20029;-78
2024/01/03 12:11:04;;;;;;;3.28;1.67;;;12.80;81.70;;;;;;5052845;28;20436;-78
2024/01/03 12:13:30;;;;;;;4.20;1.67;;;12.80;81.70;;;;;;5040153;28;20033;-78
2024/01/03 12:16:00;;;;;;;5.72;1.60;;;12.90;81.80;;;;;;5023501;28;20366;-78
2024/01/03 12:18:26;;;;;;;4.70;1.92;;;12.90;81.80;;;;;;5039809;28;20021;-78
2024/01/03 12:20:53;;;;;;;3.88;2.03;;;12.90;81.70;;;;;;5040158;28;20037;-77
2024/01/03 12:23:19;;;;;;;3.88;1.70;;;12.90;81.80;;;;;;5038484;28;20091;-79
2024/01/03 12:25:45;;;;;;;4.93;2.05;;;12.90;81.80;;;;;;5023097;28;20123;-77
2024/01/03 12:28:18;;;;;;;4.88;2.13;;;12.90;81.80;;;;;;5057233;28;20055;-79
2024/01/03 12:30:44;;;;;;;4.85;1.60;;;12.90;81.80;;;;;;5023425;28;20492;-78
2024/01/03 12:33:15;;;;;;;5.32;1.98;;;12.90;81.70;;;;;;5039395;28;20029;-77
2024/01/03 12:35:45;;;;;;;6.53;2.30;;;12.90;81.80;;;;;;5039200;28;20036;-76
2024/01/03 12:38:10;;;;;;;4.40;1.70;;;12.90;81.70;;;;;;5023558;28;20381;-77
2024/01/03 12:40:37;;;;;;;4.20;2.00;;;12.90;81.70;;;;;;5022743;28;20025;-77
2024/01/03 12:43:03;;;;;;;7.45;2.47;;;12.90;81.70;;;;;;5055756;28;20037;-77
2024/01/03 12:45:28;;;;;;;4.25;1.98;;;13.00;81.70;;;;;;5056134;28;20043;-78
2024/01/03 12:47:54;;;;;;;6.18;2.10;;;13.00;81.70;;;;;;5038989;28;20389;-77